createdAt,value
2019-03-05T00:00:55.903Z,3.60
2019-03-05T00:01:55.895Z,4.00
2019-03-05T00:02:55.861Z,3.60
2019-03-05T00:03:55.902Z,3.50
2019-03-05T00:04:55.842Z,3.40
2019-03-05T00:05:55.846Z,3.70
2019-03-05T00:06:55.915Z,3.60
2019-03-05T00:07:55.931Z,4.20
2019-03-05T00:08:55.864Z,4.10
2019-03-05T00:09:55.787Z,3.30
2019-03-05T00:10:55.776Z,3.90
2019-03-05T00:11:55.760Z,4.20
2019-03-05T00:12:55.761Z,4.00
2019-03-05T00:13:55.773Z,3.90
2019-03-05T00:14:55.782Z,3.40
2019-03-05T00:15:57.116Z,4.00
2019-03-05T00:16:55.725Z,4.30
2019-03-05T00:17:55.709Z,3.70
2019-03-05T00:18:55.706Z,3.90
2019-03-05T00:19:55.690Z,3.60
2019-03-05T00:20:55.661Z,3.80
2019-03-05T00:21:55.648Z,3.90
2019-03-05T00:22:55.680Z,4.10
2019-03-05T00:23:55.682Z,4.40
2019-03-05T00:24:55.640Z,4.20
2019-03-05T00:25:55.611Z,3.90
2019-03-05T00:26:55.606Z,4.40
2019-03-05T00:27:55.591Z,4.80
2019-03-05T00:29:08.253Z,4.30
2019-03-05T00:29:56.630Z,5.20
2019-03-05T00:30:55.580Z,4.00
2019-03-05T00:31:59.206Z,4.30
2019-03-05T00:32:55.531Z,4.80
2019-03-05T00:34:55.518Z,4.30
2019-03-05T00:35:56.552Z,4.20
2019-03-05T00:36:55.490Z,4.50
2019-03-05T00:37:55.491Z,4.30
2019-03-05T00:38:55.563Z,4.10
2019-03-05T00:39:55.540Z,4.40
2019-03-05T00:40:55.451Z,4.10
2019-03-05T00:41:55.444Z,4.00
2019-03-05T00:42:55.443Z,4.30
2019-03-05T00:43:55.423Z,3.90
2019-03-05T00:44:55.404Z,4.60
2019-03-05T00:45:55.421Z,4.10
2019-03-05T00:46:55.394Z,4.10
2019-03-05T00:47:55.381Z,5.00
2019-03-05T00:48:55.358Z,5.20
2019-03-05T00:49:55.366Z,4.70
2019-03-05T00:50:55.335Z,4.60
2019-03-05T00:51:55.321Z,4.80
2019-03-05T00:52:55.426Z,4.90
2019-03-05T00:53:55.355Z,4.90
2019-03-05T00:54:55.302Z,4.50
2019-03-05T00:55:55.283Z,4.70
2019-03-05T00:56:55.269Z,4.50
2019-03-05T00:57:55.271Z,5.00
2019-03-05T00:58:55.472Z,5.30
2019-03-05T00:59:55.307Z,5.10
2019-03-05T01:00:55.215Z,5.40
2019-03-05T01:01:55.215Z,5.50
2019-03-05T01:02:55.204Z,5.30
2019-03-05T01:03:55.222Z,5.50
2019-03-05T01:04:55.206Z,5.70
2019-03-05T01:05:55.171Z,5.10
2019-03-05T01:06:55.250Z,5.00
2019-03-05T01:07:55.161Z,5.10
2019-03-05T01:08:55.141Z,5.50
2019-03-05T01:09:55.192Z,5.50
2019-03-05T01:10:55.203Z,5.40
2019-03-05T01:11:55.205Z,5.30
2019-03-05T01:12:55.107Z,5.60
2019-03-05T01:13:55.126Z,6.20
2019-03-05T01:14:55.083Z,5.70
2019-03-05T01:15:55.080Z,5.10
2019-03-05T01:16:55.111Z,5.60
2019-03-05T01:17:55.084Z,5.80
2019-03-05T01:18:55.020Z,5.70
2019-03-05T01:19:55.048Z,5.60
2019-03-05T01:20:55.055Z,6.10
2019-03-05T01:21:54.989Z,5.40
2019-03-05T01:22:55.045Z,5.00
2019-03-05T01:23:55.027Z,5.70
2019-03-05T01:24:55.038Z,5.40
2019-03-05T01:25:54.944Z,5.20
2019-03-05T01:26:55.112Z,5.40
2019-03-05T01:27:54.958Z,5.00
2019-03-05T01:28:55.056Z,5.20
2019-03-05T01:29:54.900Z,4.90
2019-03-05T01:30:55.102Z,5.20
2019-03-05T01:31:54.891Z,5.10
2019-03-05T01:32:55.019Z,5.30
2019-03-05T01:33:54.904Z,5.70
2019-03-05T01:34:54.952Z,5.70
2019-03-05T01:35:54.844Z,5.30
2019-03-05T01:36:54.851Z,5.10
2019-03-05T01:37:54.919Z,5.30
2019-03-05T01:38:54.826Z,4.90
2019-03-05T01:39:54.788Z,5.20
2019-03-05T01:40:54.805Z,5.30
2019-03-05T01:41:54.782Z,4.90
2019-03-05T01:42:54.790Z,5.00
2019-03-05T01:43:54.838Z,4.50
2019-03-05T01:44:54.743Z,5.30
2019-03-05T01:45:54.719Z,4.50
2019-03-05T01:46:54.969Z,5.30
2019-03-05T01:47:54.701Z,4.70
2019-03-05T01:48:54.690Z,5.30
2019-03-05T01:49:54.693Z,4.70
2019-03-05T01:50:54.662Z,4.50
2019-03-05T01:51:54.660Z,4.70
2019-03-05T01:52:54.673Z,4.60
2019-03-05T01:53:54.644Z,4.70
2019-03-05T01:54:54.645Z,4.50
2019-03-05T01:55:54.610Z,4.70
2019-03-05T01:56:54.601Z,4.20
2019-03-05T01:57:54.588Z,4.60
2019-03-05T01:58:54.601Z,4.00
2019-03-05T01:59:54.590Z,4.70
2019-03-05T02:00:54.607Z,3.90
2019-03-05T02:01:54.553Z,4.20
2019-03-05T02:02:54.594Z,4.10
2019-03-05T02:03:54.530Z,4.60
2019-03-05T02:04:54.509Z,4.00
2019-03-05T02:05:54.508Z,4.30
2019-03-05T02:06:54.497Z,3.90
2019-03-05T02:07:54.481Z,3.90
2019-03-05T02:08:54.467Z,4.10
2019-03-05T02:09:54.465Z,4.10
2019-03-05T02:10:54.455Z,3.90
2019-03-05T02:11:54.515Z,3.60
2019-03-05T02:12:54.441Z,3.90
2019-03-05T02:13:54.437Z,3.60
2019-03-05T02:14:54.410Z,4.40
2019-03-05T02:15:54.408Z,3.60
2019-03-05T02:16:54.377Z,3.80
2019-03-05T02:17:54.392Z,3.90
2019-03-05T02:18:54.384Z,4.10
2019-03-05T02:19:54.343Z,3.40
2019-03-05T02:20:54.330Z,3.60
2019-03-05T02:21:54.376Z,4.00
2019-03-05T02:22:54.330Z,3.50
2019-03-05T02:23:54.333Z,3.70
2019-03-05T02:24:54.325Z,4.00
2019-03-05T02:25:54.282Z,2.90
2019-03-05T02:26:54.276Z,2.80
2019-03-05T02:27:54.286Z,3.00
2019-03-05T02:28:54.356Z,3.90
2019-03-05T02:29:54.231Z,2.90
2019-03-05T02:30:54.298Z,3.10
2019-03-05T02:31:54.225Z,3.20
2019-03-05T02:32:54.327Z,3.50
2019-03-05T02:33:54.196Z,3.10
2019-03-05T02:34:54.191Z,3.40
2019-03-05T02:35:54.205Z,3.30
2019-03-05T02:36:54.160Z,3.10
2019-03-05T02:37:54.226Z,3.50
2019-03-05T02:38:54.136Z,3.40
2019-03-05T02:39:54.137Z,3.70
2019-03-05T02:40:54.129Z,3.10
2019-03-05T02:41:54.103Z,3.10
2019-03-05T02:42:54.096Z,3.60
2019-03-05T02:43:54.090Z,3.20
2019-03-05T02:44:54.146Z,3.60
2019-03-05T02:45:54.080Z,3.60
2019-03-05T02:46:54.060Z,3.10
2019-03-05T02:47:54.085Z,3.50
2019-03-05T02:48:54.084Z,3.70
2019-03-05T02:49:54.140Z,3.20
2019-03-05T02:50:54.093Z,3.60
2019-03-05T02:51:54.051Z,3.80
2019-03-05T02:52:53.987Z,3.60
2019-03-05T02:53:54.126Z,3.50
2019-03-05T02:54:54.045Z,3.40
2019-03-05T02:55:53.960Z,3.90
2019-03-05T02:56:53.954Z,4.20
2019-03-05T02:57:53.970Z,3.10
2019-03-05T02:58:53.960Z,3.50
2019-03-05T02:59:53.959Z,3.80
2019-03-05T03:00:53.889Z,3.40
2019-03-05T03:01:53.877Z,3.80
2019-03-05T03:02:53.881Z,4.00
2019-03-05T03:03:53.863Z,3.80
2019-03-05T03:04:53.862Z,3.50
2019-03-05T03:05:53.853Z,3.70
2019-03-05T03:06:53.835Z,3.40
2019-03-05T03:07:53.843Z,3.50
2019-03-05T03:08:53.817Z,3.20
2019-03-05T03:09:53.836Z,3.40
2019-03-05T03:11:00.933Z,3.60
2019-03-05T03:12:24.980Z,4.10
2019-03-05T03:13:24.848Z,3.70
2019-03-05T03:14:24.841Z,3.50
2019-03-05T03:15:24.927Z,3.50
2019-03-05T03:16:24.819Z,3.70
2019-03-05T03:17:24.864Z,3.70
2019-03-05T03:18:24.792Z,3.20
2019-03-05T03:19:24.785Z,4.00
2019-03-05T03:20:24.770Z,3.30
2019-03-05T03:21:24.761Z,3.40
2019-03-05T03:22:24.748Z,3.30
2019-03-05T03:23:24.736Z,3.20
2019-03-05T03:24:24.742Z,3.30
2019-03-05T03:25:24.730Z,4.00
2019-03-05T03:26:24.709Z,3.80
2019-03-05T03:27:24.693Z,3.30
2019-03-05T03:28:24.684Z,3.50
2019-03-05T03:29:24.685Z,3.30
2019-03-05T03:30:24.659Z,3.20
2019-03-05T03:31:24.650Z,3.30
2019-03-05T03:32:24.648Z,3.40
2019-03-05T03:33:24.636Z,3.20
2019-03-05T03:34:24.622Z,3.20
2019-03-05T03:35:24.606Z,3.00
2019-03-05T03:36:24.589Z,2.80
2019-03-05T03:37:24.591Z,3.10
2019-03-05T03:38:24.573Z,3.10
2019-03-05T03:39:24.562Z,3.40
2019-03-05T03:40:24.577Z,3.40
2019-03-05T03:41:24.657Z,3.00
2019-03-05T03:42:24.531Z,3.30
2019-03-05T03:43:24.571Z,3.30
2019-03-05T03:44:24.535Z,2.80
2019-03-05T03:45:24.526Z,3.50
2019-03-05T03:46:24.489Z,2.80
2019-03-05T03:47:24.487Z,3.30
2019-03-05T03:48:24.460Z,3.40
2019-03-05T03:49:24.765Z,2.70
2019-03-05T03:50:24.453Z,2.90
2019-03-05T03:51:24.631Z,3.20
2019-03-05T03:52:24.447Z,3.00
2019-03-05T03:53:24.441Z,3.10
2019-03-05T03:54:24.431Z,3.40
2019-03-05T03:55:24.385Z,2.90
2019-03-05T03:56:24.391Z,3.10
2019-03-05T03:57:24.387Z,3.40
2019-03-05T03:59:57.401Z,2.90
2019-03-05T04:00:57.377Z,2.70
2019-03-05T04:01:57.374Z,3.20
2019-03-05T04:02:57.374Z,3.10
2019-03-05T04:03:57.337Z,2.50
2019-03-05T04:04:57.327Z,3.00
2019-03-05T04:05:57.325Z,3.10
2019-03-05T04:07:05.982Z,2.80
2019-03-05T04:08:39.023Z,3.30
2019-03-05T04:09:38.988Z,3.80
2019-03-05T04:10:38.980Z,3.20
2019-03-05T04:11:38.972Z,2.90
2019-03-05T04:12:38.956Z,3.30
2019-03-05T04:13:38.946Z,3.00
2019-03-05T04:14:38.938Z,3.00
2019-03-05T04:15:38.927Z,3.20
2019-03-05T04:16:38.919Z,3.20
2019-03-05T04:17:38.898Z,3.10
2019-03-05T04:18:38.893Z,3.00
2019-03-05T04:19:38.881Z,2.90
2019-03-05T04:20:38.884Z,3.00
2019-03-05T04:21:38.858Z,2.80
2019-03-05T04:22:38.851Z,3.60
2019-03-05T04:23:38.835Z,3.00
2019-03-05T04:24:38.836Z,2.90
2019-03-05T04:25:38.814Z,2.90
2019-03-05T04:26:38.821Z,2.60
2019-03-05T04:27:38.787Z,3.20
2019-03-05T04:28:38.775Z,2.90
2019-03-05T04:29:38.767Z,2.80
2019-03-05T04:30:38.768Z,3.10
2019-03-05T04:31:38.755Z,2.90
2019-03-05T04:32:38.734Z,2.90
2019-03-05T04:33:38.725Z,2.80
2019-03-05T04:34:38.704Z,3.00
2019-03-05T04:35:38.710Z,3.40
2019-03-05T04:36:38.690Z,3.10
2019-03-05T04:37:38.692Z,3.20
2019-03-05T04:38:38.665Z,2.70
2019-03-05T04:39:38.656Z,2.90
2019-03-05T04:40:38.654Z,2.90
2019-03-05T04:41:38.658Z,3.30
2019-03-05T04:42:38.628Z,3.10
2019-03-05T04:43:38.609Z,3.20
2019-03-05T04:44:38.643Z,3.00
2019-03-05T04:45:38.598Z,3.20
2019-03-05T04:46:38.574Z,3.50
2019-03-05T04:47:38.562Z,3.50
2019-03-05T04:48:38.550Z,3.60
2019-03-05T04:49:38.547Z,3.10
2019-03-05T04:50:38.537Z,4.00
2019-03-05T04:51:38.524Z,3.30
2019-03-05T04:52:38.512Z,2.90
2019-03-05T04:53:38.500Z,3.50
2019-03-05T04:54:38.483Z,3.10
2019-03-05T04:55:38.484Z,3.40
2019-03-05T04:56:38.466Z,3.30
2019-03-05T04:57:38.452Z,3.70
2019-03-05T04:58:38.449Z,3.00
2019-03-05T04:59:38.433Z,3.90
2019-03-05T05:00:38.421Z,3.80
2019-03-05T05:01:38.403Z,3.50
2019-03-05T05:02:38.419Z,3.40
2019-03-05T05:03:38.391Z,3.60
2019-03-05T05:04:38.378Z,3.60
2019-03-05T05:05:38.363Z,3.60
2019-03-05T05:06:38.357Z,3.90
2019-03-05T05:07:38.347Z,4.00
2019-03-05T05:08:38.329Z,3.80
2019-03-05T05:09:38.325Z,3.70
2019-03-05T05:10:38.366Z,4.20
2019-03-05T05:11:38.295Z,4.00
2019-03-05T05:12:38.293Z,4.40
2019-03-05T05:13:38.272Z,4.60
2019-03-05T05:14:38.275Z,4.50
2019-03-05T05:15:38.255Z,4.00
2019-03-05T05:16:38.237Z,4.20
2019-03-05T05:17:38.232Z,4.30
2019-03-05T05:18:38.218Z,4.30
2019-03-05T05:19:38.207Z,4.40
2019-03-05T05:20:38.204Z,3.80
2019-03-05T05:21:38.180Z,4.50
2019-03-05T05:22:38.168Z,4.50
2019-03-05T05:23:38.159Z,4.50
2019-03-05T05:24:38.155Z,4.70
2019-03-05T05:25:38.145Z,4.90
2019-03-05T05:26:38.150Z,5.10
2019-03-05T05:27:38.118Z,4.60
2019-03-05T05:28:38.106Z,4.60
2019-03-05T05:29:38.096Z,4.70
2019-03-05T05:30:38.081Z,4.70
2019-03-05T05:31:38.080Z,4.80
2019-03-05T05:32:38.058Z,5.10
2019-03-05T05:33:38.055Z,4.80
2019-03-05T05:34:38.060Z,4.90
2019-03-05T05:35:38.024Z,5.30
2019-03-05T05:36:38.023Z,4.70
2019-03-05T05:37:38.006Z,4.40
2019-03-05T05:38:37.992Z,4.80
2019-03-05T05:39:37.984Z,4.80
2019-03-05T05:40:37.972Z,5.50
2019-03-05T05:41:37.965Z,5.30
2019-03-05T05:42:37.957Z,5.20
2019-03-05T05:43:37.940Z,5.30
2019-03-05T05:44:37.926Z,5.60
2019-03-05T05:45:37.915Z,5.60
2019-03-05T05:46:37.911Z,5.60
2019-03-05T05:47:37.895Z,5.40
2019-03-05T05:48:37.888Z,5.30
2019-03-05T05:49:37.869Z,5.80
2019-03-05T05:50:37.857Z,5.50
2019-03-05T05:51:37.843Z,5.40
2019-03-05T05:52:37.837Z,5.60
2019-03-05T05:53:37.824Z,6.20
2019-03-05T05:54:37.809Z,5.70
2019-03-05T05:55:37.807Z,5.40
2019-03-05T05:56:37.792Z,6.00
2019-03-05T05:57:37.785Z,5.90
2019-03-05T05:58:37.787Z,5.50
2019-03-05T05:59:37.763Z,5.30
2019-03-05T06:00:37.757Z,5.50
2019-03-05T06:01:37.742Z,5.70
2019-03-05T06:02:37.729Z,6.00
2019-03-05T06:03:37.973Z,5.30
2019-03-05T06:04:37.705Z,6.00
2019-03-05T06:05:37.701Z,6.00
2019-03-05T06:06:37.679Z,6.10
2019-03-05T06:07:37.669Z,5.60
2019-03-05T06:08:37.655Z,5.50
2019-03-05T06:09:37.665Z,6.30
2019-03-05T06:10:37.644Z,6.10
2019-03-05T06:11:37.629Z,6.00
2019-03-05T06:12:37.613Z,6.00
2019-03-05T06:13:37.605Z,6.30
2019-03-05T06:14:37.600Z,6.30
2019-03-05T06:15:37.591Z,6.10
2019-03-05T06:16:37.566Z,5.60
2019-03-05T06:17:37.566Z,6.00
2019-03-05T06:18:37.546Z,6.10
2019-03-05T06:19:37.535Z,6.70
2019-03-05T06:20:37.531Z,6.10
2019-03-05T06:21:37.653Z,6.00
2019-03-05T06:22:37.507Z,5.60
2019-03-05T06:23:37.513Z,5.70
2019-03-05T06:24:37.486Z,6.80
2019-03-05T06:25:37.480Z,6.30
2019-03-05T06:26:37.456Z,6.70
2019-03-05T06:27:37.508Z,6.30
2019-03-05T06:28:37.444Z,6.80
2019-03-05T06:29:37.427Z,6.20
2019-03-05T06:30:37.422Z,6.00
2019-03-05T06:31:37.409Z,6.80
2019-03-05T06:32:37.394Z,7.10
2019-03-05T06:33:37.385Z,6.50
2019-03-05T06:34:37.394Z,6.40
2019-03-05T06:35:37.360Z,6.00
2019-03-05T06:36:37.347Z,6.20
2019-03-05T06:37:37.337Z,6.40
2019-03-05T06:38:37.332Z,6.70
2019-03-05T06:39:37.331Z,6.90
2019-03-05T06:40:37.320Z,6.30
2019-03-05T06:41:37.301Z,6.30
2019-03-05T06:42:37.287Z,7.40
2019-03-05T06:43:37.269Z,6.70
2019-03-05T06:44:37.259Z,6.40
2019-03-05T06:45:37.251Z,6.60
2019-03-05T06:46:37.235Z,6.30
2019-03-05T06:47:37.224Z,6.80
2019-03-05T06:48:37.215Z,6.20
2019-03-05T06:49:37.241Z,5.90
2019-03-05T06:50:37.196Z,6.10
2019-03-05T06:51:37.190Z,6.30
2019-03-05T06:52:37.172Z,5.90
2019-03-05T06:53:37.164Z,6.30
2019-03-05T06:54:37.153Z,5.90
2019-03-05T06:55:37.199Z,6.30
2019-03-05T06:56:37.126Z,6.00
2019-03-05T06:57:37.136Z,5.80
2019-03-05T06:58:37.106Z,5.60
2019-03-05T06:59:37.101Z,6.10
2019-03-05T07:00:37.080Z,6.10
2019-03-05T07:01:37.100Z,6.20
2019-03-05T07:02:37.063Z,5.90
2019-03-05T07:03:37.060Z,5.90
2019-03-05T07:04:37.051Z,5.80
2019-03-05T07:05:37.030Z,5.90
2019-03-05T07:06:37.014Z,5.70
2019-03-05T07:07:37.003Z,5.60
2019-03-05T07:08:36.995Z,5.80
2019-03-05T07:09:36.978Z,5.40
2019-03-05T07:10:36.976Z,5.80
2019-03-05T07:11:36.960Z,5.70
2019-03-05T07:12:36.963Z,5.60
2019-03-05T07:13:36.936Z,5.30
2019-03-05T07:14:36.946Z,6.10
2019-03-05T07:15:37.002Z,5.40
2019-03-05T07:16:36.904Z,6.30
2019-03-05T07:17:36.897Z,5.80
2019-03-05T07:18:36.890Z,5.50
2019-03-05T07:19:36.875Z,5.70
2019-03-05T07:20:36.882Z,5.90
2019-03-05T07:21:36.846Z,5.30
2019-03-05T07:22:36.833Z,5.50
2019-03-05T07:23:36.834Z,6.00
2019-03-05T07:24:36.818Z,5.50
2019-03-05T07:25:36.816Z,5.90
2019-03-05T07:26:36.837Z,5.20
2019-03-05T07:27:36.781Z,5.40
2019-03-05T07:28:36.766Z,5.50
2019-03-05T07:29:36.769Z,5.10
2019-03-05T07:30:36.753Z,5.60
2019-03-05T07:31:36.739Z,5.80
2019-03-05T07:32:36.725Z,5.60
2019-03-05T07:33:36.707Z,5.20
2019-03-05T07:34:36.699Z,5.30
2019-03-05T07:35:36.696Z,5.20
2019-03-05T07:36:36.697Z,5.50
2019-03-05T07:37:36.665Z,5.00
2019-03-05T07:38:36.653Z,5.30
2019-03-05T07:39:36.648Z,5.20
2019-03-05T07:40:36.646Z,5.40
2019-03-05T07:41:36.627Z,5.60
2019-03-05T07:42:36.639Z,5.60
2019-03-05T07:43:43.749Z,5.50
2019-03-05T07:45:18.270Z,6.50
2019-03-05T07:46:18.250Z,5.20
2019-03-05T07:47:59.907Z,5.30
2019-03-05T07:49:07.049Z,5.50
2019-03-05T07:50:42.068Z,4.90
2019-03-05T07:51:42.039Z,5.50
2019-03-05T07:52:42.032Z,5.90
2019-03-05T07:53:42.016Z,5.30
2019-03-05T07:54:42.000Z,4.90
2019-03-05T07:55:41.995Z,5.60
2019-03-05T07:56:41.982Z,5.40
2019-03-05T07:57:41.978Z,5.80
2019-03-05T07:58:49.118Z,4.90
2019-03-05T08:00:23.643Z,5.90
2019-03-05T08:01:23.600Z,5.60
2019-03-05T08:02:23.594Z,5.50
2019-03-05T08:03:23.579Z,5.40
2019-03-05T08:04:23.565Z,5.00
2019-03-05T08:05:23.559Z,5.50
2019-03-05T08:06:23.541Z,5.80
2019-03-05T08:07:23.527Z,5.70
2019-03-05T08:08:26.843Z,5.50
2019-03-05T08:09:23.553Z,5.60
2019-03-05T08:10:23.503Z,5.80
2019-03-05T08:11:23.492Z,5.50
2019-03-05T08:12:23.512Z,5.30
2019-03-05T08:13:23.466Z,5.50
2019-03-05T08:14:23.457Z,6.00
2019-03-05T08:15:23.444Z,5.50
2019-03-05T08:16:23.437Z,5.40
2019-03-05T08:17:23.433Z,5.50
2019-03-05T08:18:23.412Z,5.80
2019-03-05T08:19:23.404Z,5.60
2019-03-05T08:20:23.390Z,5.80
2019-03-05T08:21:23.406Z,6.20
2019-03-05T08:22:23.374Z,6.00
2019-03-05T08:23:23.361Z,6.00
2019-03-05T08:24:23.349Z,5.90
2019-03-05T08:25:23.336Z,5.80
2019-03-05T08:26:23.352Z,5.70
2019-03-05T08:27:23.320Z,5.70
2019-03-05T08:28:23.319Z,5.40
2019-03-05T08:29:23.299Z,5.20
2019-03-05T08:30:23.281Z,5.90
2019-03-05T08:31:23.273Z,5.30
2019-03-05T08:32:23.266Z,5.10
2019-03-05T08:33:23.296Z,5.30
2019-03-05T08:34:23.247Z,4.90
2019-03-05T08:35:23.297Z,4.90
2019-03-05T08:36:23.226Z,5.70
2019-03-05T08:37:23.209Z,6.30
2019-03-05T08:38:23.200Z,5.70
2019-03-05T08:39:23.188Z,4.90
2019-03-05T08:40:23.171Z,4.90
2019-03-05T08:41:23.162Z,5.10
2019-03-05T08:42:23.151Z,6.70
2019-03-05T08:43:23.145Z,5.80
2019-03-05T08:44:23.140Z,5.00
2019-03-05T08:45:29.205Z,4.70
2019-03-05T08:46:24.117Z,4.80
2019-03-05T08:47:23.098Z,4.40
2019-03-05T08:48:23.159Z,4.70
2019-03-05T08:49:23.086Z,5.00
2019-03-05T08:50:23.079Z,4.80
2019-03-05T08:51:23.069Z,4.50
2019-03-05T08:52:23.043Z,4.80
2019-03-05T08:53:23.045Z,5.20
2019-03-05T08:54:23.081Z,5.10
2019-03-05T08:55:23.025Z,5.00
2019-03-05T08:56:23.017Z,4.50
2019-03-05T08:57:23.004Z,4.60
2019-03-05T08:58:23.007Z,4.50
2019-03-05T08:59:22.969Z,5.10
2019-03-05T09:00:22.963Z,4.70
2019-03-05T09:01:22.948Z,4.20
2019-03-05T09:02:22.935Z,4.70
2019-03-05T09:03:22.926Z,4.60
2019-03-05T09:04:22.922Z,4.40
2019-03-05T09:05:22.913Z,4.40
2019-03-05T09:06:22.897Z,5.60
2019-03-05T09:07:22.884Z,3.80
2019-03-05T09:08:22.879Z,4.20
2019-03-05T09:09:22.866Z,3.60
2019-03-05T09:10:22.858Z,4.30
2019-03-05T09:11:22.838Z,4.30
2019-03-05T09:12:22.828Z,3.70
2019-03-05T09:13:32.197Z,3.80
2019-03-05T09:14:23.807Z,3.70
2019-03-05T09:15:22.813Z,3.50
2019-03-05T09:16:22.784Z,3.60
2019-03-05T09:17:22.772Z,4.00
2019-03-05T09:18:22.761Z,4.10
2019-03-05T09:19:22.753Z,3.60
2019-03-05T09:20:22.758Z,3.50
2019-03-05T09:21:22.766Z,3.40
2019-03-05T09:22:22.733Z,3.70
2019-03-05T09:23:22.717Z,3.20
2019-03-05T09:24:22.704Z,4.00
2019-03-05T09:25:22.696Z,3.20
2019-03-05T09:26:22.684Z,3.40
2019-03-05T09:27:22.682Z,3.40
2019-03-05T09:28:22.665Z,3.60
2019-03-05T09:29:22.652Z,3.10
2019-03-05T09:30:22.639Z,3.60
2019-03-05T09:31:22.630Z,3.30
2019-03-05T09:32:22.615Z,3.70
2019-03-05T09:33:22.613Z,3.60
2019-03-05T09:34:22.598Z,3.00
2019-03-05T09:35:22.625Z,3.40
2019-03-05T09:36:22.575Z,2.90
2019-03-05T09:37:22.576Z,3.90
2019-03-05T09:38:22.552Z,4.20
2019-03-05T09:39:22.544Z,4.90
2019-03-05T09:40:22.539Z,4.50
2019-03-05T09:41:22.520Z,5.00
2019-03-05T09:42:22.515Z,5.00
2019-03-05T09:43:22.516Z,4.80
2019-03-05T09:44:22.521Z,4.00
2019-03-05T09:45:22.484Z,3.90
2019-03-05T09:46:22.465Z,3.30
2019-03-05T09:47:22.455Z,3.90
2019-03-05T09:48:22.455Z,4.80
2019-03-05T09:49:22.427Z,4.00
2019-03-05T09:50:22.431Z,4.30
2019-03-05T09:51:22.425Z,8.00
2019-03-05T09:52:22.429Z,4.90
2019-03-05T09:53:22.405Z,5.70
2019-03-05T09:54:22.456Z,6.00
2019-03-05T09:55:22.454Z,5.70
2019-03-05T09:56:22.350Z,5.60
2019-03-05T09:57:22.367Z,6.00
2019-03-05T09:58:22.350Z,5.80
2019-03-05T09:59:22.320Z,6.10
2019-03-05T10:00:22.338Z,5.80
2019-03-05T10:01:22.309Z,5.40
2019-03-05T10:02:22.291Z,5.30
2019-03-05T10:03:22.293Z,5.50
2019-03-05T10:04:22.276Z,5.10
2019-03-05T10:05:22.282Z,4.60
2019-03-05T10:06:22.252Z,5.40
2019-03-05T10:07:22.354Z,4.50
2019-03-05T10:08:32.056Z,4.40
2019-03-05T10:09:25.810Z,5.00
2019-03-05T10:10:22.207Z,5.10
2019-03-05T10:11:22.216Z,4.80
2019-03-05T10:12:22.177Z,4.80
2019-03-05T10:13:22.175Z,4.50
2019-03-05T10:14:22.155Z,4.70
2019-03-05T10:15:22.143Z,4.50
2019-03-05T10:16:22.142Z,4.40
2019-03-05T10:17:22.134Z,4.70
2019-03-05T10:18:22.120Z,4.60
2019-03-05T10:19:22.120Z,4.90
2019-03-05T10:20:22.093Z,4.80
2019-03-05T10:21:22.079Z,4.40
2019-03-05T10:22:22.081Z,4.40
2019-03-05T10:23:22.097Z,4.60
2019-03-05T10:24:22.058Z,4.30
2019-03-05T10:25:22.041Z,4.40
2019-03-05T10:26:22.033Z,4.50
2019-03-05T10:27:22.015Z,4.20
2019-03-05T10:28:22.010Z,4.80
2019-03-05T10:29:22.001Z,4.50
2019-03-05T10:30:25.108Z,4.90
2019-03-05T10:31:21.969Z,4.60
2019-03-05T10:32:21.968Z,5.20
2019-03-05T10:33:21.968Z,4.60
2019-03-05T10:34:21.971Z,4.30
2019-03-05T10:35:21.938Z,4.40
2019-03-05T10:36:21.927Z,4.50
2019-03-05T10:37:21.909Z,4.40
2019-03-05T10:38:21.919Z,4.70
2019-03-05T10:39:29.868Z,4.80
2019-03-05T10:40:22.889Z,4.40
2019-03-05T10:41:21.877Z,4.50
2019-03-05T10:42:21.917Z,4.50
2019-03-05T10:43:21.844Z,4.70
2019-03-05T10:44:21.840Z,4.10
2019-03-05T10:45:21.961Z,4.80
2019-03-05T10:46:21.807Z,4.30
2019-03-05T10:47:21.812Z,4.30
2019-03-05T10:48:21.821Z,4.50
2019-03-05T10:49:21.798Z,4.20
2019-03-05T10:50:21.773Z,4.00
2019-03-05T10:51:21.770Z,4.20
2019-03-05T10:52:21.761Z,3.90
2019-03-05T10:53:21.735Z,3.60
2019-03-05T10:54:21.728Z,3.90
2019-03-05T10:55:26.381Z,3.80
2019-03-05T10:56:22.730Z,4.00
2019-03-05T10:57:21.701Z,3.70
2019-03-05T10:58:32.737Z,4.20
2019-03-05T10:59:22.674Z,4.00
2019-03-05T11:00:21.672Z,4.30
2019-03-05T11:01:21.668Z,4.50
2019-03-05T11:02:21.643Z,3.50
2019-03-05T11:03:21.625Z,3.30
2019-03-05T11:04:21.628Z,4.00
2019-03-05T11:05:21.662Z,3.70
2019-03-05T11:06:21.699Z,4.20
2019-03-05T11:07:21.584Z,4.00
2019-03-05T11:08:21.577Z,3.80
2019-03-05T11:09:21.594Z,4.00
2019-03-05T11:10:21.549Z,3.60
2019-03-05T11:11:21.549Z,3.70
2019-03-05T11:12:21.581Z,3.70
2019-03-05T11:13:21.521Z,3.80
2019-03-05T11:14:21.522Z,3.50
2019-03-05T11:15:21.534Z,4.30
2019-03-05T11:16:30.455Z,3.50
2019-03-05T11:17:22.467Z,3.70
2019-03-05T11:18:29.327Z,3.20
2019-03-05T11:19:22.471Z,4.30
2019-03-05T11:20:21.453Z,4.20
2019-03-05T11:21:21.442Z,3.90
2019-03-05T11:22:21.447Z,4.40
2019-03-05T11:23:21.452Z,4.30
2019-03-05T11:24:21.442Z,4.00
2019-03-05T11:25:21.451Z,4.40
2019-03-05T11:26:21.375Z,3.80
2019-03-05T11:27:21.374Z,4.00
2019-03-05T11:28:21.372Z,4.00
2019-03-05T11:29:21.357Z,3.90
2019-03-05T11:30:21.349Z,4.20
2019-03-05T11:31:21.329Z,3.90
2019-03-05T11:32:21.307Z,3.70
2019-03-05T11:33:21.434Z,3.70
2019-03-05T11:34:21.295Z,3.80
2019-03-05T11:35:21.278Z,3.60
2019-03-05T11:36:21.273Z,3.40
2019-03-05T11:37:21.264Z,3.60
2019-03-05T11:38:21.248Z,3.80
2019-03-05T11:39:21.238Z,4.00
2019-03-05T11:40:21.500Z,3.50
2019-03-05T11:41:21.208Z,3.00
2019-03-05T11:42:21.208Z,3.50
2019-03-05T11:43:21.189Z,3.80
2019-03-05T11:44:21.211Z,3.20
2019-03-05T11:45:21.165Z,3.40
2019-03-05T11:46:21.195Z,3.70
2019-03-05T11:47:21.158Z,3.50
2019-03-05T11:48:21.146Z,3.90
2019-03-05T11:49:21.119Z,3.90
2019-03-05T11:50:21.114Z,3.50
2019-03-05T11:51:21.105Z,4.00
2019-03-05T11:52:21.091Z,3.30
2019-03-05T11:53:21.080Z,3.60
2019-03-05T11:54:21.067Z,3.70
2019-03-05T11:55:21.069Z,3.50
2019-03-05T11:56:21.059Z,3.50
2019-03-05T11:57:21.034Z,3.60
2019-03-05T11:58:21.015Z,3.20
2019-03-05T11:59:21.018Z,3.10
2019-03-05T12:00:21.009Z,3.20
2019-03-05T12:01:20.986Z,3.00
2019-03-05T12:02:21.951Z,3.40
2019-03-05T12:03:20.969Z,3.20
2019-03-05T12:04:20.959Z,3.30
2019-03-05T12:05:20.972Z,3.00
2019-03-05T12:06:20.957Z,3.30
2019-03-05T12:07:20.951Z,4.20
2019-03-05T12:08:20.918Z,3.80
2019-03-05T12:09:20.907Z,3.40
2019-03-05T12:10:20.903Z,3.90
2019-03-05T12:11:20.883Z,3.60
2019-03-05T12:12:20.903Z,4.20
2019-03-05T12:13:20.868Z,3.50
2019-03-05T12:14:20.847Z,3.50
2019-03-05T12:15:20.851Z,3.70
2019-03-05T12:16:20.839Z,3.70
2019-03-05T12:17:20.816Z,3.60
2019-03-05T12:18:20.820Z,3.30
2019-03-05T12:19:20.806Z,2.90
2019-03-05T12:20:20.788Z,3.10
2019-03-05T12:21:20.763Z,3.20
2019-03-05T12:22:20.760Z,3.00
2019-03-05T12:23:20.746Z,2.90
2019-03-05T12:24:24.211Z,3.10
2019-03-05T12:25:20.727Z,3.70
2019-03-05T12:26:20.702Z,3.80
2019-03-05T12:27:20.710Z,3.50
2019-03-05T12:28:20.694Z,3.50
2019-03-05T12:29:20.684Z,3.50
2019-03-05T12:30:20.674Z,3.30
2019-03-05T12:31:20.660Z,3.00
2019-03-05T12:32:20.642Z,3.20
2019-03-05T12:33:20.648Z,3.60
2019-03-05T12:34:20.624Z,3.70
2019-03-05T12:35:20.617Z,4.40
2019-03-05T12:36:20.597Z,3.60
2019-03-05T12:37:20.586Z,4.40
2019-03-05T12:38:20.577Z,3.80
2019-03-05T12:39:20.562Z,4.90
2019-03-05T12:40:20.579Z,4.80
2019-03-05T12:41:20.556Z,3.80
2019-03-05T12:42:20.532Z,3.40
2019-03-05T12:43:20.522Z,3.20
2019-03-05T12:44:20.523Z,3.20
2019-03-05T12:45:20.493Z,3.50
2019-03-05T12:46:20.492Z,3.60
2019-03-05T12:47:20.471Z,3.70
2019-03-05T12:48:20.458Z,3.60
2019-03-05T12:49:20.454Z,3.20
2019-03-05T12:50:20.455Z,3.50
2019-03-05T12:51:20.425Z,3.40
2019-03-05T12:52:20.413Z,4.10
2019-03-05T12:53:20.403Z,3.80
2019-03-05T12:54:20.451Z,3.30
2019-03-05T12:55:20.603Z,3.50
2019-03-05T12:56:24.174Z,3.40
2019-03-05T12:57:20.357Z,3.80
2019-03-05T12:58:20.363Z,3.60
2019-03-05T12:59:20.339Z,3.60
2019-03-05T13:00:20.325Z,3.70
2019-03-05T13:01:20.324Z,3.90
2019-03-05T13:02:20.307Z,3.70
2019-03-05T13:03:20.295Z,4.30
2019-03-05T13:04:20.280Z,3.70
2019-03-05T13:05:20.268Z,3.70
2019-03-05T13:06:20.257Z,3.70
2019-03-05T13:07:20.257Z,3.70
2019-03-05T13:08:20.280Z,3.80
2019-03-05T13:09:20.245Z,4.10
2019-03-05T13:10:20.227Z,4.40
2019-03-05T13:11:20.222Z,4.70
2019-03-05T13:12:20.210Z,4.80
2019-03-05T13:13:20.182Z,5.00
2019-03-05T13:14:20.183Z,4.10
2019-03-05T13:15:20.169Z,3.50
2019-03-05T13:16:20.169Z,3.50
2019-03-05T13:17:20.135Z,3.20
2019-03-05T13:18:20.180Z,3.50
2019-03-05T13:19:20.146Z,3.30
2019-03-05T13:20:22.699Z,3.70
2019-03-05T13:21:21.091Z,3.80
2019-03-05T13:22:20.084Z,3.90
2019-03-05T13:23:20.104Z,4.10
2019-03-05T13:24:20.066Z,4.20
2019-03-05T13:25:20.052Z,4.50